Terminal Aerodrome Forecast
Issued by NWS

Home | Current Version | Previous Version | Text Only | Print | Product List | Glossary On
Versions: 1 2 3 4 5 6 7 8 9 10 11 12 13 14 15 16 17
000
FTUS43 KMPX 291100
TAFAXN
TAF
KAXN 291140Z 2912/3012 00000KT 2SM -SHRA BR OVC002
     FM291500 21005KT 6SM BR BKN007 OVC025
     FM291800 27003KT P6SM BKN020 OVC090
     FM292100 35003KT P6SM SCT025 BKN060
     FM300400 01005KT 6SM BR SCT008 OVC015
     FM300800 36006KT 3SM BR SCT004 OVC007=

USA.gov is the U.S. government's official web portal to all federal, state and local government web resources and services.